Time;durP1;ratioP1;P1;durP2;ratioP2;P2;SDS_P1;SDS_P2;PMS_P1;PMS_P2;Temp;Humidity;BMP_temperature;BMP_pressure;BME280_temperature;BME280_humidity;BME280_pressure;Samples;Min_cycle;Max_cycle;Signal;HPM_P1;HPM_P2
2023/02/01 00:01:30;;;;;;;0.60;0.60;;;;;;;3.62;85.10;98371.53;5066454;28;20021;-72
2023/02/01 00:03:55;;;;;;;0.55;0.55;;;;;;;3.70;85.56;98386.81;5065090;28;20028;-72
2023/02/01 00:06:21;;;;;;;0.55;0.55;;;;;;;3.70;85.61;98384.25;5066222;28;20025;-70
2023/02/01 00:08:46;;;;;;;1.65;1.52;;;;;;;3.69;85.51;98385.13;5066450;28;20033;-71
2023/02/01 00:11:12;;;;;;;0.50;0.50;;;;;;;3.64;84.85;98390.34;5065007;28;20031;-71
2023/02/01 00:13:40;;;;;;;0.52;0.52;;;;;;;3.74;84.78;98396.16;5066445;28;20028;-71
2023/02/01 00:16:09;;;;;;;0.52;0.52;;;;;;;3.71;85.19;98383.38;5065594;28;20020;-71
2023/02/01 00:18:35;;;;;;;0.60;0.60;;;;;;;3.66;84.95;98388.56;5068605;28;20393;-71
2023/02/01 00:21:01;;;;;;;0.60;0.60;;;;;;;3.64;84.61;98403.16;5070267;28;20474;-71
2023/02/01 00:23:26;;;;;;;0.55;0.55;;;;;;;3.67;84.70;98381.72;5067753;28;20037;-71
2023/02/01 00:25:53;;;;;;;0.50;0.50;;;;;;;3.65;85.03;98386.03;5064704;28;20067;-70
2023/02/01 00:28:18;;;;;;;0.50;0.50;;;;;;;3.63;84.95;98393.75;5065957;28;20024;-71
2023/02/01 00:30:43;;;;;;;0.50;0.50;;;;;;;3.64;84.94;98387.75;5065622;28;20385;-71
2023/02/01 00:33:09;;;;;;;0.50;0.50;;;;;;;3.61;85.11;98397.22;5065941;28;20021;-71
2023/02/01 00:35:35;;;;;;;0.50;0.50;;;;;;;3.58;85.20;98377.56;5065697;28;20112;-72
2023/02/01 00:38:01;;;;;;;0.50;0.50;;;;;;;3.63;85.19;98382.63;5065987;28;20028;-72
2023/02/01 00:40:27;;;;;;;0.50;0.50;;;;;;;3.59;85.25;98382.66;5065843;28;20056;-71
2023/02/01 00:42:53;;;;;;;0.50;0.50;;;;;;;3.63;85.55;98392.88;5065715;28;20040;-70
2023/02/01 00:45:18;;;;;;;0.50;0.50;;;;;;;3.59;85.30;98387.78;5063921;28;20041;-72
2023/02/01 00:47:43;;;;;;;0.50;0.50;;;;;;;3.60;85.60;98398.91;5065675;28;20035;-72
2023/02/01 00:50:09;;;;;;;0.50;0.50;;;;;;;3.64;85.59;98377.50;5064181;28;20029;-71
2023/02/01 00:52:35;;;;;;;0.50;0.50;;;;;;;3.64;85.47;98385.19;5064422;28;20017;-71
2023/02/01 00:55:00;;;;;;;0.50;0.50;;;;;;;3.64;85.52;98384.34;5064546;28;20339;-71
2023/02/01 00:57:25;;;;;;;0.50;0.50;;;;;;;3.64;85.83;98382.63;5065763;28;20037;-71
2023/02/01 00:59:51;;;;;;;0.52;0.52;;;;;;;3.61;85.62;98381.81;5064528;28;20466;-71
2023/02/01 01:02:16;;;;;;;0.50;0.50;;;;;;;3.63;85.54;98374.91;5064261;28;20029;-71
2023/02/01 01:04:41;;;;;;;0.50;0.50;;;;;;;3.63;85.44;98385.19;5064428;28;20028;-71
2023/02/01 01:07:07;;;;;;;0.50;0.50;;;;;;;3.63;85.21;98390.31;5065924;28;20017;-71
2023/02/01 01:09:32;;;;;;;0.60;0.60;;;;;;;3.67;85.38;98389.44;5066025;28;20097;-71
2023/02/01 01:12:02;;;;;;;0.50;0.50;;;;;;;3.67;85.17;98385.16;5064500;28;20025;-71
2023/02/01 01:14:31;;;;;;;0.50;0.50;;;;;;;3.62;84.90;98388.63;5065043;28;20025;-72
2023/02/01 01:16:57;;;;;;;0.50;0.50;;;;;;;3.72;84.75;98393.63;5063840;28;20078;-71
2023/02/01 01:19:22;;;;;;;0.50;0.50;;;;;;;3.66;84.93;98390.31;5065112;28;20427;-71
2023/02/01 01:21:48;;;;;;;0.50;0.50;;;;;;;3.71;84.95;98384.22;5063872;28;20051;-71
2023/02/01 01:24:13;;;;;;;0.50;0.50;;;;;;;3.77;85.17;98385.84;5063707;28;20028;-71
2023/02/01 01:26:38;;;;;;;0.50;0.50;;;;;;;3.77;85.10;98385.84;5063795;28;20393;-71
2023/02/01 01:29:04;;;;;;;0.50;0.50;;;;;;;3.84;85.02;98386.63;5065038;28;20388;-73
2023/02/01 01:31:30;;;;;;;0.50;0.50;;;;;;;3.82;85.10;98393.50;5064743;28;20051;-72
2023/02/01 01:33:58;;;;;;;0.57;0.57;;;;;;;3.83;84.90;98393.47;5064857;28;20028;-71
2023/02/01 01:36:25;;;;;;;0.50;0.50;;;;;;;3.86;85.07;98395.16;5063539;28;20024;-71
2023/02/01 01:38:52;;;;;;;7.70;6.60;;;;;;;3.88;84.24;98392.59;5063479;28;20028;-71
2023/02/01 01:41:21;;;;;;;0.50;0.50;;;;;;;3.91;84.03;98392.53;5063517;28;20036;-71
2023/02/01 01:43:58;;;;;;;0.50;0.50;;;;;;;3.96;84.41;98395.91;5068441;28;20069;-71
2023/02/01 01:46:25;;;;;;;0.60;0.60;;;;;;;3.94;84.29;98352.28;5104935;28;20028;-74
2023/02/01 01:49:07;;;;;;;0.50;0.50;;;;;;;4.03;83.53;98391.50;5104061;28;20048;-72
2023/02/01 01:51:41;;;;;;;0.47;0.47;;;;;;;4.01;83.71;98378.69;5087318;28;20020;-72
2023/02/01 01:54:13;;;;;;;0.50;0.50;;;;;;;4.04;82.86;98388.09;5105269;28;20048;-72
2023/02/01 01:56:40;;;;;;;0.50;0.50;;;;;;;4.13;82.59;98392.22;5086849;28;20068;-73
2023/02/01 01:59:07;;;;;;;0.60;0.60;;;;;;;4.18;82.77;98369.91;5105245;28;20037;-72
2023/02/01 02:01:32;;;;;;;0.57;0.57;;;;;;;4.24;83.11;98379.22;5104906;28;20020;-72
2023/02/01 02:03:59;;;;;;;0.50;0.50;;;;;;;4.29;82.96;98405.69;5103775;28;20119;-71
2023/02/01 02:06:51;;;;;;;0.50;0.50;;;;;;;4.35;81.64;98403.03;5105054;28;20030;-73
2023/02/01 02:09:16;;;;;;;0.50;0.50;;;;;;;4.42;81.83;98402.06;5105105;28;20023;-73
2023/02/01 02:11:42;;;;;;;0.60;0.60;;;;;;;4.44;81.53;98387.47;5104764;28;20016;-73
2023/02/01 02:14:11;;;;;;;0.50;0.50;;;;;;;4.36;81.50;98396.19;5086542;28;20024;-71
2023/02/01 02:16:58;;;;;;;0.50;0.50;;;;;;;4.43;81.05;98416.63;5104740;28;20070;-73
2023/02/01 02:19:48;;;;;;;0.50;0.50;;;;;;;4.46;81.03;98403.72;5104831;28;20099;-71
2023/02/01 02:22:33;;;;;;;0.50;0.50;;;;;;;4.45;81.23;98408.88;5104714;28;20024;-72
2023/02/01 02:25:11;;;;;;;0.50;0.50;;;;;;;4.40;81.41;98411.53;5086419;28;20034;-71
2023/02/01 02:27:46;;;;;;;0.50;0.50;;;;;;;4.41;81.19;98417.53;5105113;28;20024;-72
2023/02/01 02:30:37;;;;;;;0.60;0.60;;;;;;;4.37;81.26;98408.16;5104627;28;20035;-73
2023/02/01 02:33:28;;;;;;;0.57;0.57;;;;;;;4.43;81.26;98406.34;5104890;28;20500;-71
2023/02/01 02:36:13;;;;;;;0.70;0.70;;;;;;;4.39;81.33;98417.53;5104623;28;20065;-71
2023/02/01 02:38:52;;;;;;;0.50;0.50;;;;;;;4.39;81.36;98414.13;5088561;28;20024;-72
2023/02/01 02:47:44;;;;;;;0.60;0.60;;;;;;;4.41;82.19;98412.38;5108445;28;20066;-71
2023/02/01 03:04:35;;;;;;;0.50;0.50;;;;;;;4.36;81.71;98399.56;5108088;28;20035;-71
2023/02/01 03:07:34;;;;;;;0.50;0.50;;;;;;;4.44;81.24;98407.19;5107714;28;20020;-72
2023/02/01 03:10:05;;;;;;;0.50;0.50;;;;;;;4.25;81.19;98380.94;5107509;28;20024;-71
2023/02/01 03:15:26;;;;;;;0.50;0.50;;;;;;;4.46;81.14;98405.44;5108168;28;20073;-70
2023/02/01 03:17:55;;;;;;;0.68;0.68;;;;;;;4.37;80.96;98387.59;5089842;28;20047;-72
2023/02/01 03:20:24;;;;;;;0.60;0.60;;;;;;;4.37;80.88;98380.75;5108510;28;20036;-71
2023/02/01 03:22:52;;;;;;;0.50;0.50;;;;;;;4.43;80.73;98405.47;5108591;28;20048;-70
2023/02/01 03:25:25;;;;;;;0.60;0.60;;;;;;;4.42;80.62;98399.50;5108019;28;20047;-71
2023/02/01 03:28:00;;;;;;;0.60;0.60;;;;;;;4.37;80.75;98385.03;5090039;28;20123;-71
2023/02/01 03:30:25;;;;;;;0.50;0.50;;;;;;;4.43;80.37;98395.19;5107632;28;20472;-71
2023/02/01 03:33:01;;;;;;;0.50;0.50;;;;;;;4.42;80.13;98380.66;5089709;28;20152;-71
2023/02/01 03:35:50;;;;;;;9.15;2.88;;;;;;;4.41;80.22;98384.94;5107230;28;20097;-70
2023/02/01 03:38:23;;;;;;;0.50;0.50;;;;;;;4.39;80.65;98378.16;5107415;28;20016;-69
2023/02/01 03:41:08;;;;;;;0.50;0.50;;;;;;;4.50;80.37;98380.53;5089088;28;20028;-70
2023/02/01 03:43:44;;;;;;;0.50;0.50;;;;;;;4.44;80.45;98384.91;5088920;28;20020;-70
2023/02/01 03:46:17;;;;;;;0.73;0.73;;;;;;;4.51;79.87;98371.94;5105620;28;20066;-73
2023/02/01 03:48:44;;;;;;;0.50;0.50;;;;;;;4.50;79.19;98365.97;5106721;28;20024;-72
2023/02/01 03:51:10;;;;;;;0.50;0.50;;;;;;;4.53;79.52;98383.91;5106516;28;20024;-72
2023/02/01 03:53:37;;;;;;;0.50;0.50;;;;;;;4.51;78.67;98384.78;5107171;28;20475;-71
2023/02/01 03:56:04;;;;;;;0.50;0.50;;;;;;;4.63;78.45;98387.19;5106920;28;20030;-72
2023/02/01 03:58:30;;;;;;;0.50;0.50;;;;;;;4.62;78.64;98395.75;5107065;28;20020;-73
2023/02/01 04:00:58;;;;;;;0.50;0.50;;;;;;;4.62;78.45;98357.19;5088404;28;20055;-72
2023/02/01 04:03:26;;;;;;;1.38;1.38;;;;;;;4.64;78.31;98391.44;5088435;28;20500;-71
2023/02/01 04:05:52;;;;;;;0.55;0.55;;;;;;;4.56;78.17;98396.72;5106534;28;20039;-70
2023/02/01 04:08:19;;;;;;;0.60;0.60;;;;;;;4.62;78.33;98398.31;5106797;28;20024;-72
2023/02/01 04:10:44;;;;;;;0.50;0.50;;;;;;;4.66;78.79;98396.56;5088519;28;20028;-71
2023/02/01 04:13:11;;;;;;;0.50;0.50;;;;;;;4.68;78.57;98387.94;5106642;28;20016;-71
2023/02/01 04:15:37;;;;;;;0.50;0.50;;;;;;;4.65;78.46;98372.56;5088081;28;20024;-72
2023/02/01 04:18:02;;;;;;;0.65;0.65;;;;;;;4.63;78.59;98382.03;5106531;28;20032;-72
2023/02/01 04:20:28;;;;;;;0.50;0.50;;;;;;;4.65;78.14;98389.72;5088381;28;20027;-72
2023/02/01 04:22:53;;;;;;;0.50;0.50;;;;;;;4.61;78.37;98381.22;5106512;28;20028;-73
2023/02/01 04:25:19;;;;;;;0.60;0.60;;;;;;;4.57;78.74;98387.25;5087849;28;20024;-72
2023/02/01 04:27:44;;;;;;;0.60;0.60;;;;;;;4.68;78.60;98382.78;5105211;28;20020;-72
2023/02/01 04:30:10;;;;;;;0.50;0.50;;;;;;;4.62;79.13;98371.78;5106291;28;20043;-72
2023/02/01 04:32:37;;;;;;;0.50;0.50;;;;;;;4.61;78.97;98381.22;5106447;28;20099;-71
2023/02/01 04:35:03;;;;;;;0.45;0.45;;;;;;;4.59;79.24;98354.69;5106041;28;20031;-71
2023/02/01 04:37:28;;;;;;;0.50;0.50;;;;;;;4.59;79.38;98368.38;5087784;28;20020;-72
2023/02/01 04:39:54;;;;;;;0.50;0.50;;;;;;;4.58;79.25;98358.97;5106244;28;20051;-73
2023/02/01 04:42:20;;;;;;;0.50;0.50;;;;;;;4.60;79.16;98374.34;5106047;28;20051;-71
2023/02/01 04:44:45;;;;;;;0.50;0.50;;;;;;;4.56;78.53;98371.00;5076317;28;20500;-72
2023/02/01 04:47:11;;;;;;;0.50;0.50;;;;;;;4.50;78.58;98370.25;5065942;28;20473;-71
2023/02/01 04:49:36;;;;;;;0.50;0.50;;;;;;;4.50;78.22;98362.56;5064387;28;20017;-70
2023/02/01 04:52:02;;;;;;;52.80;5.28;;;;;;;4.52;78.18;98358.25;5065906;28;20053;-73
2023/02/01 04:54:27;;;;;;;0.50;0.50;;;;;;;4.49;78.66;98319.75;5065920;28;20109;-72
2023/02/01 04:56:53;;;;;;;1.70;1.60;;;;;;;4.46;79.12;98352.31;5064405;28;20059;-73
2023/02/01 04:59:18;;;;;;;5.15;3.22;;;;;;;4.42;79.27;98355.81;5065567;28;20456;-71
2023/02/01 05:01:44;;;;;;;0.50;0.50;;;;;;;4.39;79.53;98355.88;5064938;28;20456;-71
2023/02/01 05:04:09;;;;;;;0.68;0.68;;;;;;;4.35;79.49;98354.22;5065239;28;20029;-72
2023/02/01 05:06:35;;;;;;;0.50;0.50;;;;;;;4.28;79.89;98353.47;5065179;28;20116;-70
2023/02/01 05:09:00;;;;;;;0.50;0.50;;;;;;;4.31;79.66;98361.13;5065422;28;20068;-72
2023/02/01 05:14:09;;;;;;;0.60;0.60;;;;;;;4.35;80.03;98364.50;5065267;28;20036;-73
2023/02/01 05:16:35;;;;;;;0.50;0.50;;;;;;;4.34;80.13;98370.50;5065105;28;20408;-72
2023/02/01 05:19:01;;;;;;;0.50;0.50;;;;;;;4.34;80.23;98373.09;5065265;28;20028;-71
2023/02/01 05:21:26;;;;;;;0.55;0.55;;;;;;;4.29;80.39;98378.28;5065094;28;20047;-71
2023/02/01 05:24:09;;;;;;;0.50;0.50;;;;;;;4.32;80.32;98385.09;5065274;28;20027;-69
2023/02/01 05:26:36;;;;;;;0.50;0.50;;;;;;;4.34;80.13;98381.63;5064831;28;20043;-71
2023/02/01 05:29:01;;;;;;;0.50;0.50;;;;;;;4.31;80.19;98380.84;5064889;28;20469;-69
2023/02/01 05:31:27;;;;;;;0.50;0.50;;;;;;;4.29;79.70;98380.00;5064648;28;20111;-69
2023/02/01 05:33:52;;;;;;;0.60;0.60;;;;;;;4.26;79.50;98386.06;5064817;28;20032;-70
2023/02/01 05:36:18;;;;;;;0.55;0.55;;;;;;;4.25;79.57;98388.63;5064835;28;20092;-70
2023/02/01 05:38:43;;;;;;;0.50;0.50;;;;;;;4.27;79.67;98390.31;5064861;28;20028;-70
2023/02/01 05:41:09;;;;;;;0.50;0.50;;;;;;;4.32;79.47;98390.22;5064796;28;20077;-71
2023/02/01 05:43:34;;;;;;;0.75;0.75;;;;;;;4.26;79.88;98378.34;5064982;28;20018;-70
2023/02/01 05:46:00;;;;;;;0.60;0.60;;;;;;;4.32;79.90;98392.81;5100863;28;20044;-71
2023/02/01 05:48:25;;;;;;;0.50;0.50;;;;;;;4.31;79.50;98388.53;5104863;28;20028;-70
2023/02/01 05:50:51;;;;;;;0.60;0.60;;;;;;;4.28;79.53;98378.31;5104658;28;20056;-70
2023/02/01 05:53:16;;;;;;;5.30;2.75;;;;;;;4.33;79.37;98384.22;5086641;28;20023;-70
2023/02/01 05:55:42;;;;;;;0.73;0.73;;;;;;;4.27;79.27;98384.31;5086284;28;20024;-71
2023/02/01 05:58:07;;;;;;;0.50;0.50;;;;;;;4.27;79.11;98384.31;5104164;28;20038;-70
2023/02/01 06:00:33;;;;;;;0.60;0.60;;;;;;;4.29;78.96;98387.72;5104463;28;20111;-70
2023/02/01 06:02:58;;;;;;;0.50;0.50;;;;;;;4.29;79.29;98382.56;5104642;28;20021;-70
2023/02/01 06:05:24;;;;;;;0.50;0.50;;;;;;;4.26;79.40;98375.78;5103002;28;20066;-70
2023/02/01 06:07:50;;;;;;;0.50;0.50;;;;;;;4.32;79.34;98392.81;5104397;28;20020;-70
2023/02/01 06:10:17;;;;;;;0.60;0.60;;;;;;;4.32;79.34;98382.53;5104615;28;20051;-70
2023/02/01 06:12:44;;;;;;;0.50;0.50;;;;;;;4.39;79.38;98379.00;5104771;28;20027;-71
2023/02/01 06:15:10;;;;;;;0.50;0.50;;;;;;;4.39;79.94;98371.28;5108121;28;20110;-70
2023/02/01 06:17:36;;;;;;;0.60;0.60;;;;;;;4.39;79.56;98378.16;5107823;28;20122;-69
2023/02/01 06:20:01;;;;;;;0.60;0.60;;;;;;;4.45;79.51;98366.06;5113373;28;20024;-72
2023/02/01 06:22:27;;;;;;;0.50;0.50;;;;;;;4.49;79.74;98374.53;5110335;28;20038;-70
2023/02/01 06:24:52;;;;;;;0.50;0.50;;;;;;;4.52;80.21;98368.53;5108476;28;20024;-75
2023/02/01 06:27:17;;;;;;;0.60;0.60;;;;;;;4.51;79.88;98364.22;5108470;28;20058;-73
2023/02/01 06:29:43;;;;;;;0.77;0.75;;;;;;;4.56;80.35;98370.16;5108569;28;20020;-71
2023/02/01 06:32:09;;;;;;;0.50;0.50;;;;;;;4.57;80.15;98367.56;5108297;28;20019;-72
2023/02/01 06:34:34;;;;;;;0.90;0.90;;;;;;;4.60;80.92;98371.78;5108357;28;20487;-72
2023/02/01 06:36:59;;;;;;;0.50;0.50;;;;;;;4.61;80.57;98373.50;5108549;28;20023;-72
2023/02/01 06:39:27;;;;;;;0.98;0.98;;;;;;;4.64;80.92;98370.88;5108549;28;20027;-71
2023/02/01 06:41:52;;;;;;;0.52;0.52;;;;;;;4.60;80.19;98376.94;5090200;28;20020;-72
2023/02/01 06:44:18;;;;;;;0.50;0.50;;;;;;;4.63;80.28;98384.63;5108282;28;20131;-72
2023/02/01 06:46:43;;;;;;;0.50;0.50;;;;;;;4.44;80.62;98372.03;5089695;28;20024;-72
2023/02/01 06:49:09;;;;;;;0.40;0.40;;;;;;;4.55;80.73;98389.84;5107920;28;20044;-73
2023/02/01 06:51:34;;;;;;;0.50;0.50;;;;;;;4.52;80.57;98383.94;5107760;28;20088;-74
2023/02/01 06:54:00;;;;;;;1.15;1.15;;;;;;;4.43;80.45;98382.34;5108305;28;20020;-76
2023/02/01 06:56:26;;;;;;;0.50;0.50;;;;;;;4.36;80.01;98378.19;5107816;28;20031;-73
2023/02/01 06:58:52;;;;;;;0.50;0.50;;;;;;;4.33;80.00;98384.22;5108369;28;20028;-73
2023/02/01 07:01:18;;;;;;;0.50;0.50;;;;;;;4.29;79.89;98388.56;5107639;28;20031;-75
2023/02/01 07:03:47;;;;;;;0.50;0.50;;;;;;;4.26;79.73;98398.03;5089151;28;20425;-75
2023/02/01 07:06:12;;;;;;;0.50;0.50;;;;;;;3.93;79.50;98360.00;5107577;28;20024;-75
2023/02/01 07:08:38;;;;;;;3.78;1.13;;;;;;;4.13;79.43;98393.09;5089490;28;20077;-76
2023/02/01 07:11:06;;;;;;;0.50;0.50;;;;;;;4.11;79.48;98389.69;5089433;28;20023;-74
2023/02/01 07:13:32;;;;;;;0.60;0.60;;;;;;;4.03;79.88;98374.38;5107687;28;20024;-75
2023/02/01 07:16:02;;;;;;;0.50;0.50;;;;;;;4.01;80.24;98372.72;5107775;28;20038;-78
2023/02/01 07:18:29;;;;;;;0.60;0.60;;;;;;;4.09;80.62;98378.56;5107970;28;20046;-73
2023/02/01 07:20:55;;;;;;;0.50;0.50;;;;;;;4.11;80.44;98375.97;5107918;28;20032;-74
2023/02/01 07:23:20;;;;;;;0.50;0.50;;;;;;;4.10;80.58;98380.28;5089108;28;20206;-75
2023/02/01 07:25:46;;;;;;;0.50;0.50;;;;;;;4.11;80.84;98379.41;5107417;28;20028;-75
2023/02/01 07:28:12;;;;;;;0.50;0.50;;;;;;;4.08;80.45;98379.44;5088978;28;20076;-76
2023/02/01 07:30:37;;;;;;;0.50;0.50;;;;;;;3.99;80.25;98377.03;5107206;28;20031;-72
2023/02/01 07:33:02;;;;;;;0.50;0.50;;;;;;;3.93;80.46;98367.72;5107348;28;20028;-76
2023/02/01 07:35:29;;;;;;;0.50;0.50;;;;;;;3.95;80.56;98368.50;5105969;28;20020;-75
2023/02/01 07:37:54;;;;;;;0.50;0.50;;;;;;;3.92;80.42;98376.25;5107399;28;20028;-74
2023/02/01 07:40:24;;;;;;;0.50;0.50;;;;;;;3.92;80.80;98366.84;5107173;28;20026;-74
2023/02/01 07:42:50;;;;;;;0.60;0.60;;;;;;;3.94;80.02;98367.69;5107140;28;20093;-75
2023/02/01 07:45:15;;;;;;;0.60;0.60;;;;;;;3.98;79.91;98365.91;5106802;28;20044;-76
2023/02/01 07:47:41;;;;;;;0.52;0.52;;;;;;;3.98;79.73;98363.31;5106954;28;20502;-75
2023/02/01 07:50:07;;;;;;;0.50;0.50;;;;;;;4.00;80.03;98368.44;5107035;28;20024;-73
2023/02/01 07:52:32;;;;;;;0.50;0.50;;;;;;;4.02;79.54;98365.00;5107225;28;20408;-74
2023/02/01 07:54:58;;;;;;;0.50;0.50;;;;;;;4.15;79.30;98372.50;5107293;28;20024;-78
2023/02/01 07:57:23;;;;;;;2.08;2.00;;;;;;;4.24;79.32;98374.09;5106249;28;20032;-75
2023/02/01 08:02:32;;;;;;;0.50;0.50;;;;;;;4.73;78.32;98364.72;5105865;28;20115;-76
2023/02/01 08:04:58;;;;;;;0.50;0.50;;;;;;;4.99;78.03;98363.41;5089555;28;20051;-74
2023/02/01 08:07:23;;;;;;;0.50;0.50;;;;;;;5.13;76.81;98346.88;5090374;28;20456;-75
2023/02/01 08:09:49;;;;;;;0.57;0.57;;;;;;;5.48;76.43;98365.06;5089927;28;20020;-76
2023/02/01 08:12:14;;;;;;;0.60;0.60;;;;;;;5.69;74.73;98361.16;5108156;28;20083;-74
2023/02/01 08:14:40;;;;;;;0.50;0.50;;;;;;;5.91;74.09;98368.44;5089216;28;20076;-76
2023/02/01 08:17:06;;;;;;;0.50;0.50;;;;;;;6.09;73.33;98369.78;5088825;28;20051;-75
2023/02/01 08:19:32;;;;;;;0.50;0.50;;;;;;;6.23;73.00;98364.28;5107503;28;20016;-74
2023/02/01 08:21:59;;;;;;;0.50;0.50;;;;;;;6.54;72.42;98373.03;5108326;28;20076;-74
2023/02/01 08:24:24;;;;;;;0.50;0.50;;;;;;;6.71;71.47;98375.16;5091284;28;20016;-75
2023/02/01 08:26:50;;;;;;;0.50;0.50;;;;;;;6.78;71.07;98370.72;5107543;28;20088;-75
2023/02/01 08:29:16;;;;;;;0.40;0.40;;;;;;;6.80;70.77;98374.97;5105190;28;20031;-76
2023/02/01 08:31:41;;;;;;;1.25;1.25;;;;;;;6.77;70.07;98367.28;5105167;28;20058;-76
2023/02/01 08:34:08;;;;;;;0.50;0.50;;;;;;;6.65;70.94;98375.31;5105304;28;20028;-76
2023/02/01 08:36:34;;;;;;;0.50;0.50;;;;;;;6.67;70.75;98363.25;5086665;28;20036;-74
2023/02/01 08:39:01;;;;;;;0.50;0.50;;;;;;;6.73;70.39;98372.56;5105811;28;20019;-76
2023/02/01 08:41:29;;;;;;;0.50;0.50;;;;;;;6.80;69.96;98369.81;5105740;28;20126;-76
2023/02/01 08:43:55;;;;;;;0.50;0.50;;;;;;;6.85;70.42;98369.69;5105594;28;20093;-75
2023/02/01 08:46:21;;;;;;;0.50;0.50;;;;;;;6.90;70.01;98372.97;5086815;28;20024;-76
2023/02/01 08:48:48;;;;;;;0.50;0.50;;;;;;;6.88;69.66;98376.47;5105255;28;20028;-75
2023/02/01 08:51:16;;;;;;;0.50;0.50;;;;;;;7.13;70.25;98381.84;5104771;28;20035;-76
2023/02/01 08:53:41;;;;;;;0.50;0.50;;;;;;;7.65;69.44;98380.44;5086808;28;20104;-75
2023/02/01 08:56:09;;;;;;;1.50;1.40;;;;;;;7.90;68.90;98377.09;5105639;28;20024;-74
2023/02/01 08:58:34;;;;;;;0.40;0.40;;;;;;;8.05;67.68;98393.91;5087507;28;20038;-75
2023/02/01 09:01:08;;;;;;;0.40;0.40;;;;;;;8.06;67.84;98388.69;5105662;28;20051;-75
2023/02/01 09:03:34;;;;;;;0.40;0.40;;;;;;;8.26;66.71;98384.59;5105839;28;20032;-74
2023/02/01 09:06:04;;;;;;;2.53;2.33;;;;;;;8.15;66.88;98386.69;5087372;28;20024;-74
2023/02/01 09:08:31;;;;;;;0.43;0.43;;;;;;;7.65;67.21;98381.25;5105287;28;20032;-74
2023/02/01 09:11:05;;;;;;;0.50;0.50;;;;;;;7.17;68.66;98386.00;5087507;28;20467;-75
2023/02/01 09:13:30;;;;;;;20.67;4.00;;;;;;;6.96;69.01;98390.03;5105727;28;20024;-75
2023/02/01 09:15:56;;;;;;;0.82;0.82;;;;;;;6.75;69.51;98386.25;5087316;28;20051;-74
2023/02/01 09:18:21;;;;;;;0.50;0.50;;;;;;;6.57;70.60;98375.53;5106735;28;20030;-75
2023/02/01 09:20:47;;;;;;;0.50;0.50;;;;;;;6.43;71.11;98369.00;5108277;28;20026;-74
2023/02/01 09:23:12;;;;;;;0.40;0.40;;;;;;;6.38;71.82;98362.22;5105909;28;20028;-75
2023/02/01 09:25:38;;;;;;;0.60;0.60;;;;;;;6.68;72.49;98377.81;5105572;28;20178;-75
2023/02/01 09:28:05;;;;;;;0.50;0.50;;;;;;;6.93;71.88;98364.31;5104045;28;20031;-74
2023/02/01 09:30:35;;;;;;;4.68;4.32;;;;;;;6.80;71.56;98374.09;5105542;28;20024;-74
2023/02/01 09:33:01;;;;;;;0.50;0.50;;;;;;;6.52;71.77;98379.94;5087342;28;20020;-75
2023/02/01 09:35:26;;;;;;;12.68;2.58;;;;;;;6.35;72.20;98365.75;5087107;28;20514;-75
2023/02/01 09:37:53;;;;;;;0.55;0.55;;;;;;;6.54;73.48;98371.31;5105085;28;20020;-75
2023/02/01 09:40:19;;;;;;;0.50;0.50;;;;;;;6.83;73.08;98363.72;5105418;28;20103;-75
2023/02/01 09:42:56;;;;;;;0.50;0.50;;;;;;;7.00;72.35;98358.09;5105328;28;20503;-75
2023/02/01 09:45:54;;;;;;;0.45;0.45;;;;;;;6.77;71.53;98369.03;5104901;28;20058;-76
2023/02/01 09:48:27;;;;;;;5.10;2.78;;;;;;;6.45;72.39;98369.78;5098813;28;20043;-75
2023/02/01 09:50:57;;;;;;;0.88;0.82;;;;;;;6.26;72.60;98377.09;5109682;28;20039;-75
2023/02/01 09:53:42;;;;;;;0.50;0.50;;;;;;;6.07;73.20;98379.28;5109554;28;20043;-75
2023/02/01 09:56:14;;;;;;;1.05;1.05;;;;;;;5.95;73.76;98382.94;5108093;28;20024;-75
2023/02/01 09:58:44;;;;;;;0.50;0.50;;;;;;;5.94;74.33;98378.69;5091352;28;20031;-72
2023/02/01 10:01:23;;;;;;;0.50;0.50;;;;;;;5.89;74.56;98375.34;5109210;28;20023;-74
2023/02/01 10:03:49;;;;;;;0.50;0.50;;;;;;;5.92;74.85;98383.00;5109317;28;20503;-75
2023/02/01 10:06:30;;;;;;;0.70;0.70;;;;;;;5.94;74.93;98378.69;5109129;28;20078;-74
2023/02/01 10:09:35;;;;;;;0.70;0.70;;;;;;;5.94;75.63;98394.13;5109332;28;20109;-75
2023/02/01 10:12:07;;;;;;;0.50;0.50;;;;;;;5.80;74.86;98389.25;5109298;28;20026;-77
2023/02/01 10:14:54;;;;;;;0.50;0.50;;;;;;;5.78;75.29;98401.34;5108861;28;20028;-76
2023/02/01 10:17:33;;;;;;;1.17;1.17;;;;;;;5.76;75.05;98397.94;5108967;28;20079;-75
2023/02/01 10:20:08;;;;;;;5.68;5.03;;;;;;;5.73;75.38;98400.56;5108908;28;20069;-75
2023/02/01 10:22:36;;;;;;;0.73;0.73;;;;;;;5.74;75.77;98404.84;5090542;28;20028;-75
2023/02/01 10:25:25;;;;;;;0.50;0.50;;;;;;;5.67;75.67;98402.41;5108946;28;20099;-75
2023/02/01 10:27:50;;;;;;;0.50;0.50;;;;;;;5.62;75.83;98403.38;5108622;28;20058;-75
2023/02/01 10:30:22;;;;;;;0.50;0.50;;;;;;;5.58;75.94;98408.59;5108551;28;20024;-75
2023/02/01 10:32:51;;;;;;;0.70;0.70;;;;;;;5.56;75.96;98405.19;5108919;28;20017;-74
2023/02/01 10:35:23;;;;;;;0.50;0.50;;;;;;;5.58;76.32;98398.28;5089886;28;20052;-75
2023/02/01 10:37:50;;;;;;;0.50;0.50;;;;;;;5.66;76.84;98403.28;5090034;28;20442;-74
2023/02/01 10:40:21;;;;;;;0.50;0.50;;;;;;;5.69;76.89;98399.78;5090105;28;20085;-75
2023/02/01 10:42:49;;;;;;;0.50;0.50;;;;;;;5.66;76.83;98411.00;5108554;28;20434;-75
2023/02/01 10:45:20;;;;;;;0.50;0.50;;;;;;;5.72;77.12;98398.91;5107994;28;20052;-75
2023/02/01 10:47:49;;;;;;;0.60;0.60;;;;;;;5.73;76.66;98408.31;5108477;28;20028;-75
2023/02/01 10:50:30;;;;;;;0.50;0.50;;;;;;;5.81;76.62;98412.41;5090173;28;20321;-75
2023/02/01 10:53:06;;;;;;;0.50;0.50;;;;;;;5.81;77.21;98414.16;5090186;28;20027;-76
2023/02/01 10:55:40;;;;;;;0.50;0.50;;;;;;;5.81;77.52;98411.56;5108314;28;20064;-76
2023/02/01 10:58:15;;;;;;;0.50;0.50;;;;;;;5.86;77.51;98406.31;5107750;28;20030;-75
2023/02/01 11:00:47;;;;;;;0.50;0.50;;;;;;;5.85;77.32;98402.88;5089636;28;20089;-75
2023/02/01 11:03:32;;;;;;;;;;;;;;;5.96;77.39;98410.38;5108061;28;20020;-76
2023/02/01 11:05:58;;;;;;;0.50;0.50;;;;;;;5.89;77.19;98398.53;5088926;28;19915;-72
2023/02/01 11:08:23;;;;;;;0.50;0.50;;;;;;;5.95;77.42;98406.97;5089846;28;20126;-74
2023/02/01 11:11:01;;;;;;;0.40;0.40;;;;;;;5.90;77.63;98402.78;5108103;28;20080;-74
2023/02/01 11:13:35;;;;;;;0.50;0.50;;;;;;;6.02;77.89;98407.66;5089803;28;20399;-76
2023/02/01 11:16:02;;;;;;;0.50;0.50;;;;;;;6.05;77.50;98406.81;5089503;28;20042;-75
2023/02/01 11:18:31;;;;;;;0.50;0.50;;;;;;;6.06;77.59;98405.91;5089796;28;20024;-74
2023/02/01 11:20:58;;;;;;;0.47;0.47;;;;;;;6.02;77.62;98402.50;5089577;28;20051;-74
2023/02/01 11:23:26;;;;;;;0.50;0.50;;;;;;;6.09;77.77;98395.53;5107720;28;20027;-75
2023/02/01 11:26:01;;;;;;;3.33;3.13;;;;;;;6.13;78.06;98397.19;5089565;28;20060;-75
2023/02/01 11:28:33;;;;;;;0.50;0.50;;;;;;;6.19;78.12;98399.63;5089546;28;20049;-75
2023/02/01 11:31:01;;;;;;;;;;;;;;;6.28;77.38;98402.84;5108015;28;20024;-74
2023/02/01 11:33:33;;;;;;;0.50;0.50;;;;;;;6.25;77.54;98398.63;5107495;28;19972;-75
2023/02/01 11:36:00;;;;;;;0.50;0.50;;;;;;;6.28;77.80;98397.69;5107380;28;20060;-74
2023/02/01 11:38:32;;;;;;;0.50;0.50;;;;;;;6.31;77.19;98406.19;5107497;28;20050;-75
2023/02/01 11:41:19;;;;;;;1.25;1.25;;;;;;;6.31;77.25;98402.78;5088987;28;20016;-74
2023/02/01 11:44:00;;;;;;;0.50;0.50;;;;;;;6.39;76.65;98397.47;5088401;28;20028;-74
2023/02/01 11:46:32;;;;;;;0.50;0.50;;;;;;;6.34;75.97;98413.03;5066761;28;20148;-74
2023/02/01 11:49:19;;;;;;;0.50;0.50;;;;;;;6.25;76.07;98401.19;5066771;28;20017;-75
2023/02/01 11:51:59;;;;;;;0.60;0.60;;;;;;;6.19;76.62;98404.78;5065699;28;20036;-74
2023/02/01 11:54:25;;;;;;;0.50;0.50;;;;;;;6.13;76.30;98407.47;5066947;28;20413;-75
2023/02/01 11:57:08;;;;;;;0.50;0.50;;;;;;;6.14;76.20;98404.00;5065410;28;20029;-75
2023/02/01 11:59:57;;;;;;;0.50;0.50;;;;;;;6.17;76.36;98410.81;5066917;28;20032;-75
2023/02/01 12:02:47;;;;;;;0.40;0.40;;;;;;;6.20;76.48;98410.75;5065301;28;20024;-75
2023/02/01 12:05:27;;;;;;;0.50;0.50;;;;;;;6.10;76.63;98404.97;5066641;28;20112;-75
2023/02/01 12:08:22;;;;;;;0.50;0.50;;;;;;;6.10;76.83;98397.25;5066651;28;20036;-75
2023/02/01 12:11:02;;;;;;;0.50;0.50;;;;;;;6.04;77.11;98390.50;5065742;28;20029;-75
2023/02/01 12:13:47;;;;;;;0.47;0.47;;;;;;;6.11;77.40;98392.91;5065312;28;20396;-75
2023/02/01 12:16:40;;;;;;;8.13;2.88;;;;;;;6.13;77.60;98389.44;5064947;28;20035;-76
2023/02/01 12:19:33;;;;;;;0.50;0.50;;;;;;;6.16;77.68;98388.53;5067973;28;20051;-75
2023/02/01 12:22:23;;;;;;;0.50;0.50;;;;;;;6.13;77.43;98378.28;5065749;28;20023;-74